Time;durP1;ratioP1;P1;durP2;ratioP2;P2;SDS_P1;SDS_P2;PMS_P1;PMS_P2;Temp;Humidity;BMP_temperature;BMP_pressure;BME280_temperature;BME280_humidity;BME280_pressure;Samples;Min_cycle;Max_cycle;Signal;HPM_P1;HPM_P2
2022/10/02 00:01:17;;;;;;;20.23;3.35;;;10.40;99.90;;;;;;7339779;32;20531;-62
2022/10/02 00:05:38;;;;;;;18.55;3.08;;;10.40;99.90;;;;;;7346165;32;20523;-62
2022/10/02 00:09:51;;;;;;;20.02;3.53;;;10.50;99.90;;;;;;7342667;32;20425;-62
2022/10/02 00:14:00;;;;;;;18.75;4.05;;;10.60;99.90;;;;;;7355907;32;20420;-62
2022/10/02 00:18:14;;;;;;;16.27;3.55;;;10.60;99.90;;;;;;7346699;32;20589;-62
2022/10/02 00:22:28;;;;;;;17.35;2.80;;;10.60;99.90;;;;;;7347376;32;20103;-63
2022/10/02 00:26:48;;;;;;;23.40;3.67;;;10.60;99.90;;;;;;7346895;32;20126;-64
2022/10/02 00:31:11;;;;;;;22.08;3.65;;;10.70;99.90;;;;;;7338745;32;20214;-63
2022/10/02 00:35:45;;;;;;;23.55;3.90;;;10.80;99.90;;;;;;7341978;32;20125;-61
2022/10/02 00:39:52;;;;;;;24.73;3.25;;;11.00;99.90;;;;;;7353986;32;20745;-61
2022/10/02 00:44:14;;;;;;;;;;;11.10;99.90;;;;;;7358569;32;20177;-62
2022/10/02 00:48:34;;;;;;;28.77;4.32;;;11.10;99.90;;;;;;7346423;32;20036;-63
2022/10/02 00:52:51;;;;;;;18.62;3.55;;;11.20;99.90;;;;;;7339289;32;20099;-63
2022/10/02 00:57:28;;;;;;;23.45;3.30;;;11.30;99.90;;;;;;7355799;32;20104;-62
2022/10/02 01:01:43;;;;;;;26.77;3.65;;;11.50;99.90;;;;;;7344985;32;20121;-63
2022/10/02 01:05:45;;;;;;;22.55;3.78;;;11.40;99.90;;;;;;7345440;32;20575;-62
2022/10/02 01:09:46;;;;;;;22.58;3.37;;;11.70;99.90;;;;;;7350323;32;20107;-62
2022/10/02 01:13:48;;;;;;;21.27;3.78;;;11.70;99.90;;;;;;7360802;32;20197;-63
2022/10/02 01:17:51;;;;;;;26.45;4.53;;;11.70;99.90;;;;;;7346713;32;20103;-62
2022/10/02 01:22:02;;;;;;;21.65;3.62;;;11.70;99.90;;;;;;7343506;32;20229;-62
2022/10/02 01:26:03;;;;;;;24.65;4.97;;;11.80;99.90;;;;;;7352994;32;20511;-61
2022/10/02 01:30:07;;;;;;;26.92;3.45;;;11.80;99.90;;;;;;7350334;32;20111;-62
2022/10/02 01:34:09;;;;;;;30.98;4.82;;;11.90;99.90;;;;;;7349098;32;20139;-62
2022/10/02 01:38:15;;;;;;;29.58;3.78;;;12.00;99.90;;;;;;7352251;32;20243;-63
2022/10/02 01:42:16;;;;;;;26.60;3.75;;;12.10;99.90;;;;;;7343662;32;20125;-62
2022/10/02 01:46:43;;;;;;;25.95;3.90;;;12.20;99.90;;;;;;7345523;32;20847;-62
2022/10/02 01:50:57;;;;;;;25.05;4.50;;;12.00;99.90;;;;;;7347644;32;20135;-63
2022/10/02 01:55:20;;;;;;;27.05;3.83;;;12.10;99.90;;;;;;7353217;32;20220;-62
2022/10/02 01:59:53;;;;;;;22.02;4.28;;;12.20;99.90;;;;;;7355884;32;20190;-63
2022/10/02 02:04:20;;;;;;;23.65;3.62;;;12.20;99.90;;;;;;7338399;32;20617;-63
2022/10/02 02:08:34;;;;;;;27.55;3.67;;;12.20;99.90;;;;;;7340523;32;20149;-62
2022/10/02 02:12:48;;;;;;;26.33;3.55;;;12.20;99.90;;;;;;7348026;32;20441;-62
2022/10/02 02:17:05;;;;;;;26.90;4.82;;;12.20;99.90;;;;;;7354617;32;20492;-62
2022/10/02 02:21:17;;;;;;;33.08;3.58;;;12.20;99.90;;;;;;7345742;32;20122;-62
2022/10/02 02:25:27;;;;;;;28.00;4.45;;;12.30;99.90;;;;;;7351456;32;20316;-62
2022/10/02 02:29:34;;;;;;;33.85;4.55;;;12.40;99.90;;;;;;7350157;32;20125;-62
2022/10/02 02:33:44;;;;;;;35.58;4.62;;;12.40;99.90;;;;;;7354111;32;20504;-62
2022/10/02 02:37:55;;;;;;;36.67;4.85;;;12.50;99.90;;;;;;7342722;32;20237;-63
2022/10/02 02:42:01;;;;;;;30.50;4.12;;;12.60;99.90;;;;;;7346043;32;20567;-63
2022/10/02 02:46:08;;;;;;;27.25;4.10;;;12.60;99.90;;;;;;7347024;32;20120;-63
2022/10/02 02:50:14;;;;;;;30.50;4.07;;;12.60;99.90;;;;;;7347949;32;20531;-62
2022/10/02 02:54:23;;;;;;;29.20;4.25;;;12.60;99.90;;;;;;7349687;32;20106;-63
2022/10/02 02:58:33;;;;;;;29.08;4.05;;;12.60;99.90;;;;;;7342900;32;20705;-62
2022/10/02 03:02:35;;;;;;;21.33;3.97;;;12.70;99.90;;;;;;7339688;32;20098;-62
2022/10/02 03:06:40;;;;;;;28.12;3.95;;;12.70;99.90;;;;;;7351314;32;20202;-62
2022/10/02 03:10:57;;;;;;;29.00;3.95;;;12.80;99.90;;;;;;7343654;32;20195;-62
2022/10/02 03:15:25;;;;;;;26.00;3.57;;;12.80;99.90;;;;;;7346037;32;20104;-62
2022/10/02 03:19:45;;;;;;;26.73;3.85;;;12.80;99.90;;;;;;7347709;32;20520;-63
2022/10/02 03:24:08;;;;;;;26.80;4.00;;;12.80;99.90;;;;;;7341370;32;20103;-63
2022/10/02 03:28:13;;;;;;;29.50;4.30;;;12.90;99.90;;;;;;7335395;32;20600;-62
2022/10/02 03:32:17;;;;;;;28.95;5.07;;;12.90;99.90;;;;;;7354017;32;20175;-62
2022/10/02 03:36:20;;;;;;;26.12;3.72;;;12.80;99.90;;;;;;7353255;32;20099;-62
2022/10/02 03:40:26;;;;;;;29.12;4.85;;;13.10;99.90;;;;;;7350123;32;20706;-62
2022/10/02 03:44:27;;;;;;;33.05;4.45;;;13.10;99.90;;;;;;7344100;32;20130;-62
2022/10/02 03:48:29;;;;;;;30.23;4.25;;;13.20;99.90;;;;;;7341677;32;20100;-62
2022/10/02 03:52:33;;;;;;;31.98;4.82;;;13.30;99.90;;;;;;7343026;32;20519;-63
2022/10/02 03:56:40;;;;;;;22.90;4.18;;;13.40;99.90;;;;;;7344993;32;20134;-62
2022/10/02 04:01:00;;;;;;;24.83;3.95;;;13.40;99.90;;;;;;7346982;32;20192;-62
2022/10/02 04:05:23;;;;;;;26.77;3.60;;;13.20;99.90;;;;;;7343364;32;20209;-62
2022/10/02 04:09:29;;;;;;;23.52;3.40;;;13.10;99.90;;;;;;7353612;32;20243;-62
2022/10/02 04:13:33;;;;;;;15.82;3.55;;;13.00;99.90;;;;;;7346168;32;20420;-63
2022/10/02 04:17:43;;;;;;;19.73;3.20;;;13.10;99.90;;;;;;7348761;32;20115;-63
2022/10/02 04:22:25;;;;;;;20.50;3.33;;;13.00;99.90;;;;;;7351985;32;20153;-63
2022/10/02 04:26:32;;;;;;;14.73;2.60;;;13.00;99.90;;;;;;7318350;32;20114;-63
2022/10/02 04:30:34;;;;;;;9.70;1.85;;;13.00;99.90;;;;;;7346079;32;20596;-62
2022/10/02 04:34:36;;;;;;;11.25;2.15;;;12.80;99.90;;;;;;7353778;32;20095;-63
2022/10/02 04:39:08;;;;;;;13.82;2.12;;;12.70;99.90;;;;;;7355547;32;20095;-64
2022/10/02 04:43:34;;;;;;;10.40;1.67;;;12.60;99.90;;;;;;7357425;32;20812;-62
2022/10/02 04:47:51;;;;;;;12.15;1.73;;;12.50;99.90;;;;;;7340778;32;20202;-63
2022/10/02 04:52:12;;;;;;;9.48;1.30;;;12.40;99.90;;;;;;7351206;32;20211;-63
2022/10/02 04:57:01;;;;;;;6.93;1.33;;;12.30;99.90;;;;;;7349998;32;20547;-62
2022/10/02 05:01:25;;;;;;;7.82;1.27;;;12.30;99.90;;;;;;7344220;32;20111;-63
2022/10/02 05:05:27;;;;;;;6.65;1.30;;;12.20;99.90;;;;;;7342283;32;20111;-63
2022/10/02 05:09:50;;;;;;;5.97;1.30;;;12.20;99.90;;;;;;7352418;32;20108;-63
2022/10/02 05:14:04;;;;;;;8.65;1.60;;;12.30;99.90;;;;;;7344806;32;20198;-62
2022/10/02 05:18:20;;;;;;;9.57;1.90;;;12.20;99.90;;;;;;7341830;32;20107;-63
2022/10/02 05:22:43;;;;;;;16.27;3.03;;;12.30;99.90;;;;;;7349093;32;20185;-63
2022/10/02 05:27:22;;;;;;;13.68;3.50;;;12.40;99.90;;;;;;7350462;32;20123;-64
2022/10/02 05:31:43;;;;;;;15.00;4.43;;;12.60;99.90;;;;;;7343448;32;20198;-64
2022/10/02 05:36:06;;;;;;;14.55;4.30;;;12.60;99.90;;;;;;7343469;32;20121;-64
2022/10/02 05:40:32;;;;;;;21.77;5.78;;;12.70;99.90;;;;;;7357786;32;20663;-64
2022/10/02 05:44:47;;;;;;;25.17;7.18;;;12.80;99.90;;;;;;7345078;32;20214;-63
2022/10/02 05:49:01;;;;;;;20.58;6.43;;;12.80;99.90;;;;;;7345413;32;20103;-65
2022/10/02 05:53:32;;;;;;;24.75;4.80;;;12.70;99.90;;;;;;7350165;32;20155;-63
2022/10/02 05:57:41;;;;;;;26.48;4.32;;;12.70;99.90;;;;;;7348743;32;20248;-62
2022/10/02 06:01:49;;;;;;;18.55;3.80;;;12.60;99.90;;;;;;7345738;32;20119;-63
2022/10/02 06:06:01;;;;;;;20.30;4.20;;;12.60;99.90;;;;;;7347370;32;20202;-61
2022/10/02 06:10:16;;;;;;;16.30;4.03;;;12.60;99.90;;;;;;7348183;32;20151;-63
2022/10/02 06:14:40;;;;;;;18.67;3.90;;;12.60;99.90;;;;;;7347487;32;20112;-63
2022/10/02 06:18:48;;;;;;;20.50;4.50;;;12.80;99.90;;;;;;7338656;32;20213;-65
2022/10/02 06:22:55;;;;;;;11.73;3.78;;;12.80;99.90;;;;;;7339183;32;20119;-62
2022/10/02 06:27:09;;;;;;;16.02;4.10;;;12.90;99.90;;;;;;7347254;32;20130;-62
2022/10/02 06:31:21;;;;;;;17.70;4.65;;;12.90;99.90;;;;;;7346131;32;20099;-65
2022/10/02 06:36:02;;;;;;;16.48;4.65;;;13.00;99.90;;;;;;7347973;32;20104;-66
2022/10/02 06:40:25;;;;;;;18.85;3.92;;;13.10;99.90;;;;;;7340382;32;20100;-65
2022/10/02 06:44:55;;;;;;;23.33;4.85;;;13.10;99.90;;;;;;7352741;32;20740;-66
2022/10/02 06:49:01;;;;;;;22.08;4.93;;;13.20;99.90;;;;;;7344167;32;20125;-66
2022/10/02 06:53:30;;;;;;;22.48;5.80;;;13.30;99.90;;;;;;7339559;32;20294;-66
2022/10/02 06:57:50;;;;;;;23.23;5.43;;;13.30;99.90;;;;;;7341808;32;20222;-66
2022/10/02 07:02:16;;;;;;;16.25;4.62;;;13.30;99.90;;;;;;7342233;32;20452;-66
2022/10/02 07:06:43;;;;;;;17.80;4.25;;;13.30;99.90;;;;;;7342509;32;20098;-67
2022/10/02 07:11:00;;;;;;;20.30;4.37;;;13.30;99.90;;;;;;7344307;32;20535;-67
2022/10/02 07:15:25;;;;;;;15.40;5.07;;;13.30;99.90;;;;;;7344730;32;20103;-67
2022/10/02 07:19:42;;;;;;;12.57;4.18;;;13.30;99.90;;;;;;7351118;32;20218;-67
2022/10/02 07:24:06;;;;;;;19.92;5.37;;;13.40;99.90;;;;;;7352623;32;20785;-67
2022/10/02 07:28:23;;;;;;;15.25;5.00;;;13.40;99.90;;;;;;7345161;32;20201;-66
2022/10/02 07:32:39;;;;;;;20.15;5.60;;;13.50;99.90;;;;;;7347337;32;20183;-67
2022/10/02 07:36:57;;;;;;;19.67;5.37;;;13.60;99.90;;;;;;7341658;32;20186;-65
2022/10/02 07:41:15;;;;;;;23.35;5.70;;;13.60;99.90;;;;;;7337937;32;20110;-65
2022/10/02 07:45:26;;;;;;;17.35;5.22;;;13.80;99.90;;;;;;7341645;32;20153;-66
2022/10/02 07:49:54;;;;;;;23.12;6.78;;;13.80;99.90;;;;;;7347581;32;20586;-66
2022/10/02 07:54:08;;;;;;;17.95;6.05;;;13.90;99.90;;;;;;7345566;32;20231;-66
2022/10/02 07:58:38;;;;;;;21.85;5.80;;;13.90;99.90;;;;;;7350641;32;20131;-66
2022/10/02 08:03:12;;;;;;;16.77;5.20;;;13.90;99.90;;;;;;7341896;32;20528;-65
2022/10/02 08:07:14;;;;;;;18.58;4.75;;;14.00;99.90;;;;;;7347859;32;20102;-65
2022/10/02 08:11:51;;;;;;;11.95;4.65;;;14.10;99.90;;;;;;7349921;32;20338;-66
2022/10/02 08:15:54;;;;;;;17.37;4.90;;;14.10;99.90;;;;;;7339742;32;20554;-64
2022/10/02 08:20:06;;;;;;;13.88;6.05;;;14.10;99.90;;;;;;7344840;32;20797;-65
2022/10/02 08:24:18;;;;;;;16.50;5.80;;;14.10;99.90;;;;;;7345164;32;20103;-66
2022/10/02 08:28:41;;;;;;;17.25;5.32;;;14.10;99.90;;;;;;7346506;32;20571;-65
2022/10/02 08:32:42;;;;;;;17.37;5.35;;;14.20;99.90;;;;;;7341333;32;20645;-66
2022/10/02 08:37:09;;;;;;;14.00;6.45;;;14.30;99.90;;;;;;7339702;32;20104;-67
2022/10/02 08:41:36;;;;;;;14.02;5.40;;;14.20;99.90;;;;;;7340539;32;20213;-65
2022/10/02 08:45:40;;;;;;;17.25;7.00;;;14.20;99.90;;;;;;7337400;32;20103;-67
2022/10/02 08:49:57;;;;;;;11.40;5.68;;;14.30;99.90;;;;;;7342508;32;20206;-66
2022/10/02 08:54:25;;;;;;;14.65;4.97;;;14.40;99.90;;;;;;7349380;32;20523;-65
2022/10/02 08:58:45;;;;;;;20.95;6.07;;;14.50;99.90;;;;;;7342240;32;20164;-66
2022/10/02 09:03:18;;;;;;;17.40;5.60;;;14.40;99.90;;;;;;7345171;32;20137;-59
2022/10/02 09:07:41;;;;;;;18.05;5.47;;;14.50;99.90;;;;;;7347512;32;20108;-64
2022/10/02 09:12:13;;;;;;;14.60;4.65;;;14.50;99.90;;;;;;7349507;32;20202;-65
2022/10/02 09:16:24;;;;;;;15.85;4.80;;;14.50;99.90;;;;;;7342645;32;20141;-67
2022/10/02 09:21:00;;;;;;;14.43;5.22;;;14.50;99.90;;;;;;7353318;32;20358;-66
2022/10/02 09:25:08;;;;;;;16.23;5.70;;;14.40;99.90;;;;;;7354293;32;20194;-67
2022/10/02 09:29:21;;;;;;;12.27;5.15;;;14.40;99.90;;;;;;7356804;32;20115;-66
2022/10/02 09:33:49;;;;;;;18.05;5.43;;;14.50;99.90;;;;;;7347399;32;20660;-67
2022/10/02 09:38:02;;;;;;;12.63;4.47;;;14.50;99.90;;;;;;7344739;32;20116;-67
2022/10/02 09:42:36;;;;;;;14.52;4.35;;;14.60;99.90;;;;;;7347962;32;20241;-66
2022/10/02 09:46:53;;;;;;;13.15;4.78;;;14.80;99.90;;;;;;7347021;32;20123;-66
2022/10/02 09:51:23;;;;;;;12.88;4.70;;;14.90;99.90;;;;;;7344469;32;20108;-65
2022/10/02 09:55:48;;;;;;;11.30;3.37;;;15.00;99.90;;;;;;7349415;32;20531;-66
2022/10/02 10:00:18;;;;;;;10.68;2.20;;;15.10;99.90;;;;;;7341793;32;20107;-66
2022/10/02 10:04:50;;;;;;;10.23;2.00;;;15.00;99.90;;;;;;7344845;32;20142;-67
2022/10/02 10:09:25;;;;;;;8.63;2.37;;;14.90;99.90;;;;;;7350510;32;20133;-68
2022/10/02 10:13:31;;;;;;;6.40;2.42;;;14.90;99.90;;;;;;7340657;32;20238;-66
2022/10/02 10:17:55;;;;;;;11.18;3.12;;;14.90;99.90;;;;;;7341162;32;20140;-65
2022/10/02 10:22:30;;;;;;;7.72;3.00;;;14.90;99.90;;;;;;7350040;32;20433;-66
2022/10/02 10:26:50;;;;;;;11.07;3.85;;;14.90;99.90;;;;;;7334372;32;20119;-66
2022/10/02 10:31:14;;;;;;;11.75;3.30;;;15.10;99.90;;;;;;7346470;32;20103;-66
2022/10/02 10:35:51;;;;;;;12.68;3.53;;;15.40;99.90;;;;;;7355270;32;20115;-69
2022/10/02 10:40:37;;;;;;;10.73;2.95;;;15.70;99.90;;;;;;7342667;32;20269;-67
2022/10/02 10:45:01;;;;;;;8.70;2.78;;;15.80;99.90;;;;;;7346345;32;20165;-66
2022/10/02 10:49:25;;;;;;;11.98;3.42;;;15.90;99.90;;;;;;7343669;32;20198;-65
2022/10/02 10:53:27;;;;;;;11.98;3.30;;;15.80;99.90;;;;;;7345887;32;20421;-67
2022/10/02 10:57:35;;;;;;;11.07;2.87;;;15.60;99.90;;;;;;7340904;32;20787;-63
2022/10/02 11:01:53;;;;;;;9.68;3.15;;;15.50;99.90;;;;;;7343154;32;20134;-64
2022/10/02 11:06:33;;;;;;;15.85;3.05;;;15.50;99.90;;;;;;7342423;32;20167;-63
2022/10/02 11:11:09;;;;;;;12.37;3.25;;;15.60;99.90;;;;;;7352587;32;20221;-64
2022/10/02 11:15:13;;;;;;;11.12;3.50;;;15.70;99.90;;;;;;7337147;32;20226;-63
2022/10/02 11:19:26;;;;;;;9.25;2.70;;;15.90;99.90;;;;;;7339620;32;20137;-64
2022/10/02 11:23:43;;;;;;;8.65;2.05;;;16.20;99.90;;;;;;7347989;32;20111;-64
2022/10/02 11:28:28;;;;;;;7.90;2.83;;;16.20;99.90;;;;;;7341221;32;20531;-64
2022/10/02 11:32:53;;;;;;;8.38;2.70;;;16.30;99.90;;;;;;7350162;32;20120;-65
2022/10/02 11:37:11;;;;;;;12.00;2.60;;;16.20;99.90;;;;;;7348150;32;20104;-65
2022/10/02 11:41:37;;;;;;;11.63;2.35;;;16.00;99.90;;;;;;7345602;32;20126;-65
2022/10/02 11:46:10;;;;;;;8.95;2.50;;;16.00;99.90;;;;;;7341874;32;20218;-61
2022/10/02 11:50:28;;;;;;;10.73;2.30;;;16.30;99.90;;;;;;7345573;32;20129;-61
2022/10/02 11:54:48;;;;;;;11.95;2.37;;;16.50;99.90;;;;;;7344678;32;20595;-64
2022/10/02 11:59:06;;;;;;;10.65;2.28;;;16.80;99.90;;;;;;7346830;32;20115;-64
2022/10/02 12:03:19;;;;;;;12.23;2.53;;;16.90;99.90;;;;;;7350056;32;20598;-65
2022/10/02 12:07:24;;;;;;;9.52;2.25;;;16.80;99.90;;;;;;7346414;32;20688;-65
2022/10/02 12:11:34;;;;;;;10.48;2.30;;;16.70;99.90;;;;;;7341281;32;20175;-66
2022/10/02 12:16:02;;;;;;;10.23;2.37;;;16.70;99.90;;;;;;7341683;32;20114;-65
2022/10/02 12:29:39;;;;;;;10.10;2.50;;;17.00;99.90;;;;;;7348496;32;20107;-66
2022/10/02 12:33:53;;;;;;;10.30;2.00;;;16.80;99.90;;;;;;7344898;32;20150;-64
2022/10/02 12:38:18;;;;;;;11.57;2.00;;;16.70;99.90;;;;;;7348935;32;20551;-65
2022/10/02 12:42:39;;;;;;;8.02;2.35;;;16.90;99.90;;;;;;7347405;32;20107;-65
2022/10/02 12:47:14;;;;;;;7.82;1.80;;;17.00;99.90;;;;;;7349254;32;20130;-65
2022/10/02 12:51:28;;;;;;;10.50;1.85;;;16.90;99.90;;;;;;7350924;32;20176;-65
2022/10/02 12:55:51;;;;;;;12.98;2.65;;;16.80;99.90;;;;;;7347613;32;20125;-65
2022/10/02 13:00:13;;;;;;;9.63;1.80;;;16.60;99.90;;;;;;7352537;32;20281;-65
2022/10/02 13:04:26;;;;;;;11.38;2.10;;;16.50;99.90;;;;;;7352324;32;20515;-64
2022/10/02 13:08:54;;;;;;;11.68;2.08;;;16.70;99.90;;;;;;7360584;32;20509;-64
2022/10/02 13:13:23;;;;;;;9.75;1.92;;;16.70;99.90;;;;;;7355878;32;20103;-66
2022/10/02 13:17:30;;;;;;;12.43;2.45;;;16.80;99.90;;;;;;7346531;32;20118;-66
2022/10/02 13:21:46;;;;;;;;;;;16.90;99.90;;;;;;7342910;32;20175;-64
2022/10/02 13:26:14;;;;;;;9.77;2.40;;;17.00;99.90;;;;;;7358040;32;20482;-64
2022/10/02 13:30:19;;;;;;;9.68;1.70;;;17.10;99.90;;;;;;7349093;32;20163;-65
2022/10/02 13:34:36;;;;;;;7.78;1.83;;;17.00;99.90;;;;;;7350171;32;20095;-64
2022/10/02 13:39:17;;;;;;;13.95;2.53;;;17.00;99.90;;;;;;7350638;32;20108;-65
2022/10/02 13:43:48;;;;;;;10.52;2.45;;;17.30;99.90;;;;;;7341608;32;20753;-65
2022/10/02 13:48:28;;;;;;;12.32;3.22;;;17.40;99.90;;;;;;7343818;32;21135;-65
2022/10/02 13:52:56;;;;;;;8.45;2.75;;;17.30;99.90;;;;;;7342741;32;20218;-65
2022/10/02 13:57:42;;;;;;;15.48;2.70;;;17.10;99.90;;;;;;7302511;32;20137;-65
2022/10/02 14:02:06;;;;;;;9.75;2.45;;;16.90;99.90;;;;;;7329364;32;20190;-65
2022/10/02 14:06:25;;;;;;;11.00;2.17;;;16.80;99.90;;;;;;7343256;32;20976;-65
2022/10/02 14:11:06;;;;;;;9.18;2.50;;;16.70;99.90;;;;;;7345384;32;20138;-64
2022/10/02 14:15:29;;;;;;;12.18;2.50;;;16.80;99.90;;;;;;7326378;32;20122;-65
2022/10/02 14:19:43;;;;;;;9.55;2.65;;;16.90;99.90;;;;;;7346108;32;20133;-64
2022/10/02 14:23:59;;;;;;;8.90;2.47;;;17.00;99.90;;;;;;7352061;32;20182;-65
2022/10/02 14:28:10;;;;;;;10.90;1.80;;;16.90;99.90;;;;;;7346738;32;20116;-64
2022/10/02 14:32:24;;;;;;;8.95;2.28;;;16.50;99.90;;;;;;7342013;32;20111;-65
2022/10/02 14:36:50;;;;;;;10.25;2.10;;;16.30;99.90;;;;;;7343880;32;20103;-67
2022/10/02 14:40:53;;;;;;;10.15;3.12;;;16.20;99.90;;;;;;7348092;32;20157;-64
2022/10/02 14:45:27;;;;;;;15.57;3.30;;;16.20;99.90;;;;;;7340753;32;20190;-65
2022/10/02 14:50:20;;;;;;;15.43;2.62;;;16.40;99.90;;;;;;7342620;32;20099;-66
2022/10/02 14:54:40;;;;;;;14.85;3.65;;;16.50;99.90;;;;;;7311640;32;20498;-67
2022/10/02 14:59:08;;;;;;;15.15;4.62;;;16.50;99.90;;;;;;7337710;32;20124;-64
2022/10/02 15:03:16;;;;;;;;;;;16.60;99.90;;;;;;7313281;32;20155;-64
2022/10/02 15:07:21;;;;;;;8.75;2.35;;;16.40;99.90;;;;;;7337767;32;20007;-65
2022/10/02 15:11:35;;;;;;;12.77;4.10;;;16.20;99.90;;;;;;7345877;32;20467;-64
2022/10/02 15:15:48;;;;;;;15.73;5.00;;;16.20;99.90;;;;;;7342573;32;20467;-66
2022/10/02 15:20:04;;;;;;;12.37;3.92;;;16.30;99.90;;;;;;7344372;32;20180;-65
2022/10/02 15:24:25;;;;;;;16.20;4.53;;;16.30;99.90;;;;;;7346582;32;20126;-65
2022/10/02 15:28:37;;;;;;;14.27;2.60;;;16.20;99.90;;;;;;7347624;32;20103;-65
2022/10/02 15:32:39;;;;;;;13.43;3.80;;;16.10;99.90;;;;;;7346277;32;20122;-67
2022/10/02 15:36:55;;;;;;;14.93;3.58;;;16.00;99.90;;;;;;7342693;32;20119;-64
2022/10/02 15:41:15;;;;;;;10.30;2.07;;;15.80;99.90;;;;;;7353882;32;20182;-67
2022/10/02 15:45:45;;;;;;;13.00;2.62;;;15.80;99.90;;;;;;7339341;32;20103;-66
2022/10/02 15:50:09;;;;;;;13.00;3.37;;;15.60;99.90;;;;;;7349800;32;20513;-66
2022/10/02 15:54:54;;;;;;;11.85;2.55;;;15.40;99.90;;;;;;7335639;32;20122;-65
2022/10/02 15:59:01;;;;;;;10.20;2.12;;;15.20;99.90;;;;;;7340110;32;20191;-65
2022/10/02 16:03:20;;;;;;;13.20;2.30;;;15.00;99.90;;;;;;7346103;32;20376;-64
2022/10/02 16:07:52;;;;;;;13.30;3.30;;;14.80;99.90;;;;;;7350878;32;20111;-64
2022/10/02 16:12:26;;;;;;;13.73;3.35;;;14.60;99.90;;;;;;7349723;32;20244;-65
2022/10/02 16:16:38;;;;;;;14.57;3.10;;;14.50;99.90;;;;;;7343776;32;20193;-63
2022/10/02 16:21:02;;;;;;;14.38;2.97;;;14.40;99.90;;;;;;7350002;32;20129;-64
2022/10/02 16:25:22;;;;;;;12.80;2.78;;;14.30;99.90;;;;;;7346542;32;20698;-64
2022/10/02 16:29:46;;;;;;;11.12;2.83;;;14.30;99.90;;;;;;7349633;32;21269;-65
2022/10/02 16:34:09;;;;;;;10.57;3.15;;;14.00;99.90;;;;;;7346286;32;20149;-65
2022/10/02 16:38:47;;;;;;;10.43;2.87;;;13.80;99.90;;;;;;7355665;32;20116;-65
2022/10/02 16:43:12;;;;;;;12.83;3.27;;;13.60;99.90;;;;;;7333445;32;20138;-65
2022/10/02 16:47:32;;;;;;;9.93;3.22;;;13.50;99.90;;;;;;7341889;32;20583;-64
2022/10/02 16:51:40;;;;;;;13.80;4.32;;;13.40;99.90;;;;;;7343271;32;20214;-64
2022/10/02 16:55:47;;;;;;;10.20;4.15;;;13.20;99.90;;;;;;7346563;32;20126;-66
2022/10/02 16:59:59;;;;;;;15.23;5.10;;;13.10;99.90;;;;;;7354518;32;20111;-64
2022/10/02 17:04:07;;;;;;;15.65;5.87;;;12.90;99.90;;;;;;7340398;32;20112;-65
2022/10/02 17:08:30;;;;;;;9.93;5.35;;;12.80;99.90;;;;;;7345710;32;20111;-64
2022/10/02 17:12:47;;;;;;;16.75;6.62;;;12.80;99.90;;;;;;7341181;32;20124;-65
2022/10/02 17:16:55;;;;;;;29.27;13.85;;;12.70;99.90;;;;;;7345140;32;20108;-63
2022/10/02 17:21:10;;;;;;;22.08;11.70;;;12.70;99.90;;;;;;7350027;32;20183;-61
2022/10/02 17:25:49;;;;;;;28.15;16.45;;;12.60;99.90;;;;;;7355660;32;20134;-63
2022/10/02 17:29:51;;;;;;;20.50;11.68;;;12.60;99.90;;;;;;7348205;32;20375;-63
2022/10/02 17:34:20;;;;;;;18.65;10.23;;;12.60;99.90;;;;;;7346398;32;20157;-60
2022/10/02 17:38:49;;;;;;;16.52;7.68;;;12.60;99.90;;;;;;7333515;32;20100;-60
2022/10/02 17:43:22;;;;;;;17.35;7.80;;;12.60;99.90;;;;;;7325399;32;20499;-61
2022/10/02 17:47:36;;;;;;;17.48;6.10;;;12.50;99.90;;;;;;7341404;32;20229;-61
2022/10/02 17:51:44;;;;;;;15.07;5.40;;;12.50;99.90;;;;;;7345639;32;20107;-62
2022/10/02 17:56:28;;;;;;;15.77;4.97;;;12.40;99.90;;;;;;7346314;32;20121;-61
2022/10/02 18:00:36;;;;;;;12.40;4.93;;;12.40;99.90;;;;;;7345882;32;20138;-60
2022/10/02 18:04:49;;;;;;;20.42;7.57;;;12.20;99.90;;;;;;7347418;32;20648;-62
2022/10/02 18:09:21;;;;;;;21.95;12.68;;;12.10;99.90;;;;;;7353129;32;20140;-60
2022/10/02 18:13:59;;;;;;;24.83;13.23;;;12.10;99.90;;;;;;7343049;32;20499;-60
2022/10/02 18:18:32;;;;;;;30.37;14.10;;;12.00;99.90;;;;;;7343357;32;20103;-63
2022/10/02 18:22:54;;;;;;;18.37;9.70;;;11.80;99.90;;;;;;7342842;32;20210;-62
2022/10/02 18:27:21;;;;;;;28.67;14.95;;;11.70;99.90;;;;;;7340562;32;20199;-63
2022/10/02 18:31:35;;;;;;;28.38;14.63;;;11.60;99.90;;;;;;7340912;32;20269;-63
2022/10/02 18:36:16;;;;;;;26.77;13.13;;;11.50;99.90;;;;;;7356598;32;20115;-64
2022/10/02 18:40:29;;;;;;;22.42;14.20;;;11.40;99.90;;;;;;7350150;32;20112;-63
2022/10/02 18:44:53;;;;;;;24.65;16.15;;;11.30;99.90;;;;;;7347238;32;20119;-62
2022/10/02 18:49:31;;;;;;;20.90;12.45;;;11.10;99.90;;;;;;7343286;32;20116;-62
2022/10/02 18:53:38;;;;;;;21.48;10.98;;;11.00;99.90;;;;;;7341939;32;20468;-63
2022/10/02 18:57:50;;;;;;;18.92;8.32;;;10.90;99.90;;;;;;7343135;32;20218;-62
2022/10/02 19:01:57;;;;;;;14.98;8.68;;;10.80;99.90;;;;;;7344998;32;20138;-63
2022/10/02 19:06:16;;;;;;;21.45;13.07;;;10.70;99.90;;;;;;7351231;32;20134;-63
2022/10/02 19:10:28;;;;;;;23.42;12.13;;;10.60;99.90;;;;;;7346843;32;20132;-63
2022/10/02 19:14:40;;;;;;;28.65;14.82;;;10.50;99.90;;;;;;7353886;32;20130;-63
2022/10/02 19:18:41;;;;;;;25.65;10.85;;;10.50;99.90;;;;;;7344767;32;20130;-62
2022/10/02 19:22:43;;;;;;;15.75;8.13;;;10.30;99.90;;;;;;7341106;32;20141;-62
2022/10/02 19:26:51;;;;;;;17.73;7.72;;;10.20;99.90;;;;;;7342499;32;20154;-63
2022/10/02 19:30:58;;;;;;;21.65;8.07;;;10.10;99.90;;;;;;7339277;32;20205;-62
2022/10/02 19:35:10;;;;;;;12.68;7.00;;;10.00;99.90;;;;;;7343053;32;20130;-62
2022/10/02 19:39:29;;;;;;;19.62;6.82;;;9.90;99.90;;;;;;7341692;32;20134;-62
2022/10/02 19:43:33;;;;;;;16.05;6.25;;;9.80;99.90;;;;;;7345352;32;20115;-62
2022/10/02 19:47:48;;;;;;;12.55;4.70;;;9.70;99.90;;;;;;7342087;32;20139;-61
2022/10/02 19:51:51;;;;;;;10.35;4.47;;;9.70;99.90;;;;;;7338090;32;20158;-62
2022/10/02 19:55:56;;;;;;;9.82;4.40;;;9.60;99.90;;;;;;7335865;32;20119;-63
2022/10/02 19:59:59;;;;;;;13.88;3.90;;;9.50;99.90;;;;;;7341809;32;20137;-62
2022/10/02 20:04:03;;;;;;;13.57;4.95;;;9.40;99.90;;;;;;7337909;32;20111;-61
2022/10/02 20:08:16;;;;;;;9.57;4.85;;;9.40;99.90;;;;;;7339233;32;20504;-61
2022/10/02 20:12:34;;;;;;;13.18;4.45;;;9.20;99.90;;;;;;7336279;32;20534;-61
2022/10/02 20:21:30;;;;;;;13.30;4.82;;;9.10;99.90;;;;;;7266811;32;20670;-61
2022/10/02 20:25:41;;;;;;;11.50;4.97;;;9.10;99.90;;;;;;7339410;32;20528;-64
2022/10/02 20:29:50;;;;;;;12.75;3.78;;;9.10;99.90;;;;;;7343694;32;20102;-60
2022/10/02 20:33:57;;;;;;;11.18;3.60;;;9.10;99.90;;;;;;7344897;32;20476;-61
2022/10/02 20:38:09;;;;;;;14.47;3.40;;;9.00;99.90;;;;;;7340196;32;20107;-61
2022/10/02 20:42:21;;;;;;;17.40;4.55;;;8.90;99.90;;;;;;7347084;32;20137;-62
2022/10/02 20:46:32;;;;;;;8.77;3.42;;;8.90;99.90;;;;;;7346448;32;20249;-61
2022/10/02 20:50:56;;;;;;;11.57;4.30;;;8.80;99.90;;;;;;7344208;32;20198;-61
2022/10/02 20:55:38;;;;;;;13.30;3.60;;;8.80;99.90;;;;;;7344126;32;20175;-60
2022/10/02 21:00:02;;;;;;;17.90;3.62;;;8.70;99.90;;;;;;7251539;32;20124;-60
2022/10/02 21:04:13;;;;;;;11.68;3.20;;;8.60;99.90;;;;;;7305772;32;20107;-60
2022/10/02 21:08:35;;;;;;;13.93;3.03;;;8.50;99.90;;;;;;7343519;32;20119;-60
2022/10/02 21:12:49;;;;;;;10.40;3.40;;;8.40;99.90;;;;;;7344222;32;20141;-61
2022/10/02 21:17:18;;;;;;;14.10;3.25;;;8.30;99.90;;;;;;7344677;32;20760;-61
2022/10/02 21:21:42;;;;;;;10.55;3.40;;;8.30;99.90;;;;;;7350674;32;20111;-60
2022/10/02 21:26:12;;;;;;;9.93;3.75;;;8.20;99.90;;;;;;7343163;32;20129;-59
2022/10/02 21:30:18;;;;;;;12.40;3.40;;;8.20;99.90;;;;;;7340508;32;20523;-60
2022/10/02 21:34:47;;;;;;;8.80;2.97;;;8.10;99.90;;;;;;7350949;32;20475;-60
2022/10/02 21:39:31;;;;;;;7.75;3.12;;;8.10;99.90;;;;;;7350950;32;20261;-60
2022/10/02 21:44:24;;;;;;;7.75;2.92;;;8.00;99.90;;;;;;7351412;32;20217;-59
2022/10/02 21:49:07;;;;;;;11.43;2.90;;;8.00;99.90;;;;;;7347947;32;20193;-60
2022/10/02 21:53:47;;;;;;;7.97;2.60;;;7.90;99.90;;;;;;7347468;32;20111;-60
2022/10/02 21:58:06;;;;;;;4.87;2.65;;;7.90;99.90;;;;;;7328340;32;20137;-59
2022/10/02 22:02:58;;;;;;;7.57;2.58;;;7.80;99.90;;;;;;7349703;32;20726;-60
2022/10/02 22:07:02;;;;;;;12.13;2.62;;;7.70;99.90;;;;;;7320885;32;20144;-60
2022/10/02 22:11:38;;;;;;;7.32;2.35;;;7.60;99.90;;;;;;7344924;32;20138;-59
2022/10/02 22:15:46;;;;;;;10.38;2.75;;;7.60;99.90;;;;;;7326782;32;20103;-59
2022/10/02 22:20:11;;;;;;;10.00;2.28;;;7.50;99.90;;;;;;7346178;32;20182;-59
2022/10/02 22:24:21;;;;;;;7.00;2.05;;;7.50;99.90;;;;;;7346637;32;20535;-59
2022/10/02 22:28:35;;;;;;;11.93;2.80;;;7.50;99.90;;;;;;7337655;32;20137;-60